sensor_id;sensor_type;location;lat;lon;timestamp;P1;durP1;ratioP1;P2;durP2;ratioP2
40088;SDS011;25793;55.706;13.186;2022-09-17T00:01:26;397.08;;;365.60;;
40088;SDS011;25793;55.706;13.186;2022-09-17T00:03:54;383.20;;;352.10;;
40088;SDS011;25793;55.706;13.186;2022-09-17T00:06:24;404.75;;;372.08;;
40088;SDS011;25793;55.706;13.186;2022-09-17T00:08:51;407.15;;;374.60;;
40088;SDS011;25793;55.706;13.186;2022-09-17T00:11:29;399.00;;;366.95;;
40088;SDS011;25793;55.706;13.186;2022-09-17T00:13:58;381.50;;;350.70;;
40088;SDS011;25793;55.706;13.186;2022-09-17T00:16:28;368.27;;;338.42;;
40088;SDS011;25793;55.706;13.186;2022-09-17T00:19:00;378.97;;;349.10;;
40088;SDS011;25793;55.706;13.186;2022-09-17T00:21:28;369.38;;;340.08;;
40088;SDS011;25793;55.706;13.186;2022-09-17T00:23:55;367.60;;;338.10;;
40088;SDS011;25793;55.706;13.186;2022-09-17T00:26:24;369.30;;;339.60;;
40088;SDS011;25793;55.706;13.186;2022-09-17T00:28:51;364.80;;;335.60;;
40088;SDS011;25793;55.706;13.186;2022-09-17T00:31:20;355.07;;;326.57;;
40088;SDS011;25793;55.706;13.186;2022-09-17T00:33:47;361.50;;;332.75;;
40088;SDS011;25793;55.706;13.186;2022-09-17T00:36:14;359.40;;;330.65;;
40088;SDS011;25793;55.706;13.186;2022-09-17T00:38:41;373.40;;;343.35;;
40088;SDS011;25793;55.706;13.186;2022-09-17T00:41:08;365.63;;;336.10;;
40088;SDS011;25793;55.706;13.186;2022-09-17T00:43:42;381.15;;;350.95;;
40088;SDS011;25793;55.706;13.186;2022-09-17T00:46:19;383.85;;;352.75;;
40088;SDS011;25793;55.706;13.186;2022-09-17T00:48:53;381.03;;;349.50;;
40088;SDS011;25793;55.706;13.186;2022-09-17T00:51:26;390.02;;;358.13;;
40088;SDS011;25793;55.706;13.186;2022-09-17T00:53:58;385.50;;;353.58;;
40088;SDS011;25793;55.706;13.186;2022-09-17T00:56:28;388.93;;;356.83;;
40088;SDS011;25793;55.706;13.186;2022-09-17T00:58:57;394.50;;;361.65;;
40088;SDS011;25793;55.706;13.186;2022-09-17T01:01:27;404.27;;;370.13;;
40088;SDS011;25793;55.706;13.186;2022-09-17T01:03:55;403.83;;;369.92;;
40088;SDS011;25793;55.706;13.186;2022-09-17T01:07:07;408.70;;;374.50;;
40088;SDS011;25793;55.706;13.186;2022-09-17T01:09:30;410.60;;;376.35;;
40088;SDS011;25793;55.706;13.186;2022-09-17T01:12:24;405.23;;;371.40;;
40088;SDS011;25793;55.706;13.186;2022-09-17T01:15:19;403.00;;;369.35;;
40088;SDS011;25793;55.706;13.186;2022-09-17T01:21:02;405.63;;;371.73;;
40088;SDS011;25793;55.706;13.186;2022-09-17T01:32:17;379.25;;;348.95;;
40088;SDS011;25793;55.706;13.186;2022-09-17T01:35:10;385.15;;;354.02;;
40088;SDS011;25793;55.706;13.186;2022-09-17T01:37:59;385.13;;;353.85;;
40088;SDS011;25793;55.706;13.186;2022-09-17T01:40:39;398.87;;;366.67;;
40088;SDS011;25793;55.706;13.186;2022-09-17T01:43:34;406.80;;;373.38;;
40088;SDS011;25793;55.706;13.186;2022-09-17T01:46:18;412.35;;;378.27;;
40088;SDS011;25793;55.706;13.186;2022-09-17T01:48:48;409.77;;;375.50;;
40088;SDS011;25793;55.706;13.186;2022-09-17T01:51:21;425.48;;;390.13;;
40088;SDS011;25793;55.706;13.186;2022-09-17T01:56:26;427.83;;;392.38;;
40088;SDS011;25793;55.706;13.186;2022-09-17T01:59:00;422.30;;;387.10;;
40088;SDS011;25793;55.706;13.186;2022-09-17T02:01:33;428.23;;;392.33;;
40088;SDS011;25793;55.706;13.186;2022-09-17T02:04:05;425.90;;;390.15;;
40088;SDS011;25793;55.706;13.186;2022-09-17T02:06:37;423.00;;;386.38;;
40088;SDS011;25793;55.706;13.186;2022-09-17T02:09:13;436.13;;;398.65;;
40088;SDS011;25793;55.706;13.186;2022-09-17T02:11:50;429.90;;;392.45;;
40088;SDS011;25793;55.706;13.186;2022-09-17T02:14:27;440.27;;;402.23;;
40088;SDS011;25793;55.706;13.186;2022-09-17T02:17:00;444.75;;;406.55;;
40088;SDS011;25793;55.706;13.186;2022-09-17T02:19:41;435.58;;;397.48;;
40088;SDS011;25793;55.706;13.186;2022-09-17T02:22:20;430.95;;;393.05;;
40088;SDS011;25793;55.706;13.186;2022-09-17T02:25:03;430.90;;;393.25;;
40088;SDS011;25793;55.706;13.186;2022-09-17T02:30:21;444.40;;;405.48;;
40088;SDS011;25793;55.706;13.186;2022-09-17T02:32:48;457.58;;;418.15;;
40088;SDS011;25793;55.706;13.186;2022-09-17T02:35:15;442.30;;;403.67;;
40088;SDS011;25793;55.706;13.186;2022-09-17T02:37:42;438.73;;;400.20;;
40088;SDS011;25793;55.706;13.186;2022-09-17T02:40:10;451.37;;;412.00;;
40088;SDS011;25793;55.706;13.186;2022-09-17T02:45:35;440.48;;;402.05;;
40088;SDS011;25793;55.706;13.186;2022-09-17T02:57:47;445.50;;;406.83;;
40088;SDS011;25793;55.706;13.186;2022-09-17T03:00:20;446.77;;;408.25;;
40088;SDS011;25793;55.706;13.186;2022-09-17T03:02:56;446.13;;;407.50;;
40088;SDS011;25793;55.706;13.186;2022-09-17T03:05:24;452.52;;;413.48;;
40088;SDS011;25793;55.706;13.186;2022-09-17T03:07:56;450.55;;;411.30;;
40088;SDS011;25793;55.706;13.186;2022-09-17T03:10:25;432.17;;;394.08;;
40088;SDS011;25793;55.706;13.186;2022-09-17T03:12:58;443.30;;;404.40;;
40088;SDS011;25793;55.706;13.186;2022-09-17T03:15:25;438.80;;;400.55;;
40088;SDS011;25793;55.706;13.186;2022-09-17T03:17:52;443.65;;;405.60;;
40088;SDS011;25793;55.706;13.186;2022-09-17T03:20:19;438.73;;;401.02;;
40088;SDS011;25793;55.706;13.186;2022-09-17T03:22:45;443.15;;;405.35;;
40088;SDS011;25793;55.706;13.186;2022-09-17T03:25:12;441.92;;;403.85;;
40088;SDS011;25793;55.706;13.186;2022-09-17T03:27:39;436.95;;;399.30;;
40088;SDS011;25793;55.706;13.186;2022-09-17T03:30:05;457.27;;;418.08;;
40088;SDS011;25793;55.706;13.186;2022-09-17T03:32:32;440.35;;;401.63;;
40088;SDS011;25793;55.706;13.186;2022-09-17T03:34:59;442.83;;;403.77;;
40088;SDS011;25793;55.706;13.186;2022-09-17T03:37:25;455.75;;;416.48;;
40088;SDS011;25793;55.706;13.186;2022-09-17T03:39:58;467.57;;;427.37;;
40088;SDS011;25793;55.706;13.186;2022-09-17T03:42:25;478.40;;;437.35;;
40088;SDS011;25793;55.706;13.186;2022-09-17T03:44:51;464.92;;;424.98;;
40088;SDS011;25793;55.706;13.186;2022-09-17T03:47:18;470.00;;;429.58;;
40088;SDS011;25793;55.706;13.186;2022-09-17T03:49:45;453.42;;;413.80;;
40088;SDS011;25793;55.706;13.186;2022-09-17T03:52:11;472.63;;;431.97;;
40088;SDS011;25793;55.706;13.186;2022-09-17T03:54:38;469.25;;;428.67;;
40088;SDS011;25793;55.706;13.186;2022-09-17T03:57:04;459.15;;;419.15;;
40088;SDS011;25793;55.706;13.186;2022-09-17T03:59:31;472.17;;;432.15;;
40088;SDS011;25793;55.706;13.186;2022-09-17T04:01:58;444.75;;;406.50;;
40088;SDS011;25793;55.706;13.186;2022-09-17T04:04:25;462.27;;;423.37;;
40088;SDS011;25793;55.706;13.186;2022-09-17T04:06:51;441.90;;;404.90;;
40088;SDS011;25793;55.706;13.186;2022-09-17T04:09:19;452.10;;;412.70;;
40088;SDS011;25793;55.706;13.186;2022-09-17T04:11:49;444.60;;;408.13;;
40088;SDS011;25793;55.706;13.186;2022-09-17T04:14:15;428.33;;;393.10;;
40088;SDS011;25793;55.706;13.186;2022-09-17T04:16:42;421.13;;;387.23;;
40088;SDS011;25793;55.706;13.186;2022-09-17T04:19:09;410.67;;;377.23;;
40088;SDS011;25793;55.706;13.186;2022-09-17T04:21:36;431.00;;;396.73;;
40088;SDS011;25793;55.706;13.186;2022-09-17T04:24:02;404.95;;;372.17;;
40088;SDS011;25793;55.706;13.186;2022-09-17T04:26:29;402.48;;;370.02;;
40088;SDS011;25793;55.706;13.186;2022-09-17T04:28:56;385.92;;;355.08;;
40088;SDS011;25793;55.706;13.186;2022-09-17T04:31:22;391.25;;;360.40;;
40088;SDS011;25793;55.706;13.186;2022-09-17T04:33:50;385.33;;;354.50;;
40088;SDS011;25793;55.706;13.186;2022-09-17T04:36:16;387.20;;;356.08;;
40088;SDS011;25793;55.706;13.186;2022-09-17T04:38:46;405.35;;;372.95;;
40088;SDS011;25793;55.706;13.186;2022-09-17T04:41:13;394.40;;;362.17;;
40088;SDS011;25793;55.706;13.186;2022-09-17T04:43:40;406.00;;;372.42;;
40088;SDS011;25793;55.706;13.186;2022-09-17T04:46:07;386.13;;;355.30;;
40088;SDS011;25793;55.706;13.186;2022-09-17T04:48:37;413.15;;;380.35;;
40088;SDS011;25793;55.706;13.186;2022-09-17T04:51:04;415.90;;;382.90;;
40088;SDS011;25793;55.706;13.186;2022-09-17T04:53:30;404.95;;;372.13;;
40088;SDS011;25793;55.706;13.186;2022-09-17T04:55:57;412.88;;;379.45;;
40088;SDS011;25793;55.706;13.186;2022-09-17T04:58:24;414.73;;;381.10;;
40088;SDS011;25793;55.706;13.186;2022-09-17T05:00:50;430.90;;;396.27;;
40088;SDS011;25793;55.706;13.186;2022-09-17T05:03:17;419.80;;;385.02;;
40088;SDS011;25793;55.706;13.186;2022-09-17T05:05:44;428.08;;;392.95;;
40088;SDS011;25793;55.706;13.186;2022-09-17T05:08:10;412.98;;;378.90;;
40088;SDS011;25793;55.706;13.186;2022-09-17T05:10:37;412.63;;;378.90;;
40088;SDS011;25793;55.706;13.186;2022-09-17T05:13:06;416.35;;;382.45;;
40088;SDS011;25793;55.706;13.186;2022-09-17T05:15:43;415.65;;;381.88;;
40088;SDS011;25793;55.706;13.186;2022-09-17T05:18:19;425.95;;;391.52;;
40088;SDS011;25793;55.706;13.186;2022-09-17T05:20:46;419.08;;;384.70;;
40088;SDS011;25793;55.706;13.186;2022-09-17T05:23:12;418.95;;;384.60;;
40088;SDS011;25793;55.706;13.186;2022-09-17T05:25:39;399.65;;;366.52;;
40088;SDS011;25793;55.706;13.186;2022-09-17T05:28:06;411.27;;;377.58;;
40088;SDS011;25793;55.706;13.186;2022-09-17T05:30:32;421.23;;;387.20;;
40088;SDS011;25793;55.706;13.186;2022-09-17T05:33:00;413.60;;;379.63;;
40088;SDS011;25793;55.706;13.186;2022-09-17T05:35:28;422.95;;;388.48;;
40088;SDS011;25793;55.706;13.186;2022-09-17T05:37:59;436.95;;;402.10;;
40088;SDS011;25793;55.706;13.186;2022-09-17T05:40:28;418.08;;;383.98;;
40088;SDS011;25793;55.706;13.186;2022-09-17T05:42:57;416.00;;;382.07;;
40088;SDS011;25793;55.706;13.186;2022-09-17T05:45:24;429.38;;;395.10;;
40088;SDS011;25793;55.706;13.186;2022-09-17T05:47:53;412.13;;;378.70;;
40088;SDS011;25793;55.706;13.186;2022-09-17T05:50:21;412.60;;;379.35;;
40088;SDS011;25793;55.706;13.186;2022-09-17T05:52:49;413.17;;;379.77;;
40088;SDS011;25793;55.706;13.186;2022-09-17T05:55:19;423.17;;;388.92;;
40088;SDS011;25793;55.706;13.186;2022-09-17T05:57:47;413.98;;;380.10;;
40088;SDS011;25793;55.706;13.186;2022-09-17T06:00:15;401.73;;;368.45;;
40088;SDS011;25793;55.706;13.186;2022-09-17T06:02:41;399.48;;;366.10;;
40088;SDS011;25793;55.706;13.186;2022-09-17T06:05:08;393.83;;;361.47;;
40088;SDS011;25793;55.706;13.186;2022-09-17T06:07:35;390.17;;;358.57;;
40088;SDS011;25793;55.706;13.186;2022-09-17T06:10:04;387.25;;;356.25;;
40088;SDS011;25793;55.706;13.186;2022-09-17T06:12:31;373.67;;;343.73;;
40088;SDS011;25793;55.706;13.186;2022-09-17T06:15:01;372.42;;;342.45;;
40088;SDS011;25793;55.706;13.186;2022-09-17T06:17:31;382.20;;;351.70;;
40088;SDS011;25793;55.706;13.186;2022-09-17T06:19:59;375.40;;;345.65;;
40088;SDS011;25793;55.706;13.186;2022-09-17T06:22:26;350.30;;;322.17;;
40088;SDS011;25793;55.706;13.186;2022-09-17T06:24:53;353.95;;;325.67;;
40088;SDS011;25793;55.706;13.186;2022-09-17T06:27:20;370.27;;;341.00;;
40088;SDS011;25793;55.706;13.186;2022-09-17T06:29:46;376.35;;;346.65;;
40088;SDS011;25793;55.706;13.186;2022-09-17T06:32:13;361.00;;;330.92;;
40088;SDS011;25793;55.706;13.186;2022-09-17T06:34:42;375.17;;;345.40;;
40088;SDS011;25793;55.706;13.186;2022-09-17T06:37:09;375.08;;;344.98;;
40088;SDS011;25793;55.706;13.186;2022-09-17T06:39:35;365.33;;;335.83;;
40088;SDS011;25793;55.706;13.186;2022-09-17T06:42:02;367.93;;;338.13;;
40088;SDS011;25793;55.706;13.186;2022-09-17T06:44:30;364.05;;;333.55;;
40088;SDS011;25793;55.706;13.186;2022-09-17T06:46:57;359.73;;;330.45;;
40088;SDS011;25793;55.706;13.186;2022-09-17T06:49:24;360.57;;;331.63;;
40088;SDS011;25793;55.706;13.186;2022-09-17T06:51:50;339.63;;;312.25;;
40088;SDS011;25793;55.706;13.186;2022-09-17T06:54:17;328.95;;;302.98;;
40088;SDS011;25793;55.706;13.186;2022-09-17T06:56:47;307.75;;;284.00;;
40088;SDS011;25793;55.706;13.186;2022-09-17T06:59:15;240.23;;;222.70;;
40088;SDS011;25793;55.706;13.186;2022-09-17T07:01:43;255.95;;;237.38;;
40088;SDS011;25793;55.706;13.186;2022-09-17T07:04:10;241.10;;;223.77;;
40088;SDS011;25793;55.706;13.186;2022-09-17T07:06:41;260.23;;;241.50;;
40088;SDS011;25793;55.706;13.186;2022-09-17T07:09:12;238.98;;;222.07;;
40088;SDS011;25793;55.706;13.186;2022-09-17T07:11:38;247.98;;;230.60;;
40088;SDS011;25793;55.706;13.186;2022-09-17T07:14:05;224.65;;;208.98;;
40088;SDS011;25793;55.706;13.186;2022-09-17T07:16:33;208.53;;;194.27;;
40088;SDS011;25793;55.706;13.186;2022-09-17T07:19:02;202.57;;;188.55;;
40088;SDS011;25793;55.706;13.186;2022-09-17T07:21:46;160.77;;;150.23;;
40088;SDS011;25793;55.706;13.186;2022-09-17T07:24:21;174.67;;;162.97;;
40088;SDS011;25793;55.706;13.186;2022-09-17T07:26:48;188.07;;;175.57;;
40088;SDS011;25793;55.706;13.186;2022-09-17T07:29:16;172.15;;;160.75;;
40088;SDS011;25793;55.706;13.186;2022-09-17T07:31:44;156.25;;;146.15;;
40088;SDS011;25793;55.706;13.186;2022-09-17T07:34:18;146.50;;;137.13;;
40088;SDS011;25793;55.706;13.186;2022-09-17T07:36:47;164.02;;;153.25;;
40088;SDS011;25793;55.706;13.186;2022-09-17T07:39:15;161.27;;;150.80;;
40088;SDS011;25793;55.706;13.186;2022-09-17T07:41:45;176.63;;;164.88;;
40088;SDS011;25793;55.706;13.186;2022-09-17T07:44:11;167.97;;;156.97;;
40088;SDS011;25793;55.706;13.186;2022-09-17T07:46:38;159.57;;;149.23;;
40088;SDS011;25793;55.706;13.186;2022-09-17T07:49:04;154.07;;;144.10;;
40088;SDS011;25793;55.706;13.186;2022-09-17T07:51:31;152.05;;;142.32;;
40088;SDS011;25793;55.706;13.186;2022-09-17T07:53:58;162.02;;;151.43;;
40088;SDS011;25793;55.706;13.186;2022-09-17T07:56:25;165.95;;;155.23;;
40088;SDS011;25793;55.706;13.186;2022-09-17T07:58:52;148.25;;;138.45;;
40088;SDS011;25793;55.706;13.186;2022-09-17T08:01:19;150.00;;;140.15;;
40088;SDS011;25793;55.706;13.186;2022-09-17T08:03:49;193.80;;;181.00;;
40088;SDS011;25793;55.706;13.186;2022-09-17T08:06:19;149.55;;;139.55;;
40088;SDS011;25793;55.706;13.186;2022-09-17T08:08:54;165.38;;;154.73;;
40088;SDS011;25793;55.706;13.186;2022-09-17T08:11:23;181.30;;;169.07;;
40088;SDS011;25793;55.706;13.186;2022-09-17T08:14:14;142.90;;;133.52;;
40088;SDS011;25793;55.706;13.186;2022-09-17T08:16:43;144.13;;;134.55;;
40088;SDS011;25793;55.706;13.186;2022-09-17T08:19:12;146.18;;;136.60;;
40088;SDS011;25793;55.706;13.186;2022-09-17T08:21:43;136.27;;;127.70;;
40088;SDS011;25793;55.706;13.186;2022-09-17T08:24:09;133.57;;;124.95;;
40088;SDS011;25793;55.706;13.186;2022-09-17T08:26:36;138.60;;;129.68;;
40088;SDS011;25793;55.706;13.186;2022-09-17T08:29:07;120.45;;;113.03;;
40088;SDS011;25793;55.706;13.186;2022-09-17T08:31:36;116.65;;;109.38;;
40088;SDS011;25793;55.706;13.186;2022-09-17T08:34:06;125.28;;;117.57;;
40088;SDS011;25793;55.706;13.186;2022-09-17T08:36:35;132.65;;;124.22;;
40088;SDS011;25793;55.706;13.186;2022-09-17T08:39:04;110.47;;;103.78;;
40088;SDS011;25793;55.706;13.186;2022-09-17T08:41:39;113.70;;;106.75;;
40088;SDS011;25793;55.706;13.186;2022-09-17T08:44:41;106.95;;;100.57;;
40088;SDS011;25793;55.706;13.186;2022-09-17T08:49:59;104.25;;;98.20;;
40088;SDS011;25793;55.706;13.186;2022-09-17T09:03:27;51.10;;;48.45;;
40088;SDS011;25793;55.706;13.186;2022-09-17T09:06:07;43.03;;;40.72;;
40088;SDS011;25793;55.706;13.186;2022-09-17T09:11:30;50.77;;;48.17;;
40088;SDS011;25793;55.706;13.186;2022-09-17T09:14:09;58.97;;;55.67;;
40088;SDS011;25793;55.706;13.186;2022-09-17T09:16:47;45.83;;;43.47;;
40088;SDS011;25793;55.706;13.186;2022-09-17T09:28:34;14.98;;;14.07;;
40088;SDS011;25793;55.706;13.186;2022-09-17T09:30:50;16.27;;;15.38;;
40088;SDS011;25793;55.706;13.186;2022-09-17T09:36:20;14.27;;;13.48;;
40088;SDS011;25793;55.706;13.186;2022-09-17T09:41:45;17.48;;;16.58;;
40088;SDS011;25793;55.706;13.186;2022-09-17T09:44:30;13.60;;;12.80;;
40088;SDS011;25793;55.706;13.186;2022-09-17T09:47:40;8.25;;;7.75;;
40088;SDS011;25793;55.706;13.186;2022-09-17T09:50:07;11.15;;;10.45;;
40088;SDS011;25793;55.706;13.186;2022-09-17T09:52:57;10.38;;;9.77;;
40088;SDS011;25793;55.706;13.186;2022-09-17T09:58:36;2.60;;;2.40;;
40088;SDS011;25793;55.706;13.186;2022-09-17T10:01:17;2.30;;;2.10;;
40088;SDS011;25793;55.706;13.186;2022-09-17T10:03:51;2.17;;;1.97;;
40088;SDS011;25793;55.706;13.186;2022-09-17T10:06:19;2.78;;;1.88;;
40088;SDS011;25793;55.706;13.186;2022-09-17T10:11:20;2.08;;;1.83;;
40088;SDS011;25793;55.706;13.186;2022-09-17T10:13:48;2.80;;;2.10;;
40088;SDS011;25793;55.706;13.186;2022-09-17T10:18:49;1.90;;;1.63;;
40088;SDS011;25793;55.706;13.186;2022-09-17T10:21:42;3.03;;;1.83;;
40088;SDS011;25793;55.706;13.186;2022-09-17T10:24:27;3.17;;;1.38;;
40088;SDS011;25793;55.706;13.186;2022-09-17T10:27:04;3.00;;;1.40;;
40088;SDS011;25793;55.706;13.186;2022-09-17T10:29:43;1.60;;;1.30;;
40088;SDS011;25793;55.706;13.186;2022-09-17T10:32:15;2.25;;;1.35;;
40088;SDS011;25793;55.706;13.186;2022-09-17T10:37:46;2.35;;;1.30;;
40088;SDS011;25793;55.706;13.186;2022-09-17T10:42:48;1.90;;;1.70;;
40088;SDS011;25793;55.706;13.186;2022-09-17T10:45:23;2.53;;;1.45;;
40088;SDS011;25793;55.706;13.186;2022-09-17T10:47:51;2.20;;;1.30;;
40088;SDS011;25793;55.706;13.186;2022-09-17T10:52:47;1.60;;;1.40;;
40088;SDS011;25793;55.706;13.186;2022-09-17T10:58:28;2.40;;;2.17;;
40088;SDS011;25793;55.706;13.186;2022-09-17T11:15:35;2.07;;;1.30;;
40088;SDS011;25793;55.706;13.186;2022-09-17T11:31:57;1.30;;;1.00;;
40088;SDS011;25793;55.706;13.186;2022-09-17T11:34:59;1.20;;;1.10;;
40088;SDS011;25793;55.706;13.186;2022-09-17T11:40:40;1.45;;;0.95;;
40088;SDS011;25793;55.706;13.186;2022-09-17T11:46:06;0.90;;;0.90;;
40088;SDS011;25793;55.706;13.186;2022-09-17T11:48:37;0.90;;;0.90;;
40088;SDS011;25793;55.706;13.186;2022-09-17T11:51:17;1.30;;;1.20;;
40088;SDS011;25793;55.706;13.186;2022-09-17T11:56:53;1.27;;;1.10;;
40088;SDS011;25793;55.706;13.186;2022-09-17T12:02:43;1.20;;;1.00;;
40088;SDS011;25793;55.706;13.186;2022-09-17T12:05:25;1.52;;;1.10;;
40088;SDS011;25793;55.706;13.186;2022-09-17T12:08:02;1.80;;;0.98;;
40088;SDS011;25793;55.706;13.186;2022-09-17T12:13:53;1.33;;;1.05;;
40088;SDS011;25793;55.706;13.186;2022-09-17T12:16:28;1.20;;;1.00;;
40088;SDS011;25793;55.706;13.186;2022-09-17T12:19:03;0.80;;;0.80;;
40088;SDS011;25793;55.706;13.186;2022-09-17T12:21:47;1.15;;;1.02;;
40088;SDS011;25793;55.706;13.186;2022-09-17T12:24:21;1.10;;;1.02;;
40088;SDS011;25793;55.706;13.186;2022-09-17T12:32:01;1.80;;;0.90;;
40088;SDS011;25793;55.706;13.186;2022-09-17T12:38:01;1.40;;;0.93;;
40088;SDS011;25793;55.706;13.186;2022-09-17T12:44:00;1.30;;;1.10;;
40088;SDS011;25793;55.706;13.186;2022-09-17T12:49:40;0.93;;;0.90;;
40088;SDS011;25793;55.706;13.186;2022-09-17T12:52:16;1.20;;;1.10;;
40088;SDS011;25793;55.706;13.186;2022-09-17T13:07:36;1.20;;;1.10;;
40088;SDS011;25793;55.706;13.186;2022-09-17T13:21:32;1.10;;;1.00;;
40088;SDS011;25793;55.706;13.186;2022-09-17T13:24:14;2.40;;;1.20;;
40088;SDS011;25793;55.706;13.186;2022-09-17T13:26:43;1.63;;;1.13;;
40088;SDS011;25793;55.706;13.186;2022-09-17T13:37:44;1.90;;;1.10;;
40088;SDS011;25793;55.706;13.186;2022-09-17T13:45:28;1.20;;;0.90;;
40088;SDS011;25793;55.706;13.186;2022-09-17T13:48:09;1.00;;;0.70;;
40088;SDS011;25793;55.706;13.186;2022-09-17T13:50:37;4.53;;;4.23;;
40088;SDS011;25793;55.706;13.186;2022-09-17T14:11:43;11.00;;;10.30;;
40088;SDS011;25793;55.706;13.186;2022-09-17T14:16:40;11.27;;;10.48;;
40088;SDS011;25793;55.706;13.186;2022-09-17T14:32:23;16.70;;;15.70;;
40088;SDS011;25793;55.706;13.186;2022-09-17T14:35:22;14.35;;;13.43;;
40088;SDS011;25793;55.706;13.186;2022-09-17T14:37:53;18.00;;;16.92;;
40088;SDS011;25793;55.706;13.186;2022-09-17T14:40:23;17.45;;;16.45;;
40088;SDS011;25793;55.706;13.186;2022-09-17T14:42:53;16.63;;;15.35;;
40088;SDS011;25793;55.706;13.186;2022-09-17T14:45:31;18.87;;;17.77;;
40088;SDS011;25793;55.706;13.186;2022-09-17T14:48:17;17.27;;;16.17;;
40088;SDS011;25793;55.706;13.186;2022-09-17T14:53:45;11.15;;;10.45;;
40088;SDS011;25793;55.706;13.186;2022-09-17T14:56:19;10.37;;;9.67;;
40088;SDS011;25793;55.706;13.186;2022-09-17T14:58:48;6.63;;;6.15;;
40088;SDS011;25793;55.706;13.186;2022-09-17T15:01:25;6.38;;;5.85;;
40088;SDS011;25793;55.706;13.186;2022-09-17T15:06:40;6.25;;;5.65;;
40088;SDS011;25793;55.706;13.186;2022-09-17T15:09:15;4.70;;;4.35;;
40088;SDS011;25793;55.706;13.186;2022-09-17T15:11:50;7.22;;;6.72;;
40088;SDS011;25793;55.706;13.186;2022-09-17T15:14:21;6.50;;;6.00;;
40088;SDS011;25793;55.706;13.186;2022-09-17T15:16:53;9.00;;;8.32;;
40088;SDS011;25793;55.706;13.186;2022-09-17T15:19:32;7.97;;;7.47;;
40088;SDS011;25793;55.706;13.186;2022-09-17T15:22:13;7.83;;;7.33;;
40088;SDS011;25793;55.706;13.186;2022-09-17T15:24:59;7.13;;;6.53;;
40088;SDS011;25793;55.706;13.186;2022-09-17T15:27:35;6.72;;;6.18;;
40088;SDS011;25793;55.706;13.186;2022-09-17T15:32:42;7.63;;;7.03;;
40088;SDS011;25793;55.706;13.186;2022-09-17T15:35:18;9.40;;;8.75;;
40088;SDS011;25793;55.706;13.186;2022-09-17T15:38:03;14.88;;;13.98;;
40088;SDS011;25793;55.706;13.186;2022-09-17T15:40:50;15.15;;;13.95;;
40088;SDS011;25793;55.706;13.186;2022-09-17T15:43:27;11.65;;;10.90;;
40088;SDS011;25793;55.706;13.186;2022-09-17T15:45:56;18.95;;;17.85;;
40088;SDS011;25793;55.706;13.186;2022-09-17T15:48:40;16.48;;;15.30;;
40088;SDS011;25793;55.706;13.186;2022-09-17T15:51:14;21.42;;;20.13;;
40088;SDS011;25793;55.706;13.186;2022-09-17T15:53:52;22.37;;;20.97;;
40088;SDS011;25793;55.706;13.186;2022-09-17T15:56:24;21.30;;;20.05;;
40088;SDS011;25793;55.706;13.186;2022-09-17T15:58:58;22.38;;;20.88;;
40088;SDS011;25793;55.706;13.186;2022-09-17T16:04:08;14.57;;;13.57;;
40088;SDS011;25793;55.706;13.186;2022-09-17T16:06:48;18.33;;;17.17;;
40088;SDS011;25793;55.706;13.186;2022-09-17T16:09:43;17.42;;;16.17;;
40088;SDS011;25793;55.706;13.186;2022-09-17T16:12:16;17.80;;;16.30;;
40088;SDS011;25793;55.706;13.186;2022-09-17T16:14:46;17.92;;;16.83;;
40088;SDS011;25793;55.706;13.186;2022-09-17T16:17:41;18.52;;;17.27;;
40088;SDS011;25793;55.706;13.186;2022-09-17T16:20:19;19.73;;;18.45;;
40088;SDS011;25793;55.706;13.186;2022-09-17T16:22:49;10.52;;;9.82;;
40088;SDS011;25793;55.706;13.186;2022-09-17T16:25:22;10.32;;;9.63;;
40088;SDS011;25793;55.706;13.186;2022-09-17T16:27:52;8.98;;;8.38;;
40088;SDS011;25793;55.706;13.186;2022-09-17T16:30:23;10.73;;;10.02;;
40088;SDS011;25793;55.706;13.186;2022-09-17T16:32:50;12.23;;;11.37;;
40088;SDS011;25793;55.706;13.186;2022-09-17T16:35:20;14.50;;;13.57;;
40088;SDS011;25793;55.706;13.186;2022-09-17T16:37:52;12.52;;;11.63;;
40088;SDS011;25793;55.706;13.186;2022-09-17T16:40:21;17.90;;;16.50;;
40088;SDS011;25793;55.706;13.186;2022-09-17T16:42:49;20.52;;;19.02;;
40088;SDS011;25793;55.706;13.186;2022-09-17T16:45:16;28.40;;;26.65;;
40088;SDS011;25793;55.706;13.186;2022-09-17T16:47:43;26.42;;;24.85;;
40088;SDS011;25793;55.706;13.186;2022-09-17T16:50:13;25.02;;;23.42;;
40088;SDS011;25793;55.706;13.186;2022-09-17T16:52:44;34.30;;;32.33;;
40088;SDS011;25793;55.706;13.186;2022-09-17T16:55:12;39.22;;;36.97;;
40088;SDS011;25793;55.706;13.186;2022-09-17T16:57:40;24.37;;;22.57;;
40088;SDS011;25793;55.706;13.186;2022-09-17T17:00:08;36.65;;;34.45;;
40088;SDS011;25793;55.706;13.186;2022-09-17T17:02:42;30.15;;;28.27;;
40088;SDS011;25793;55.706;13.186;2022-09-17T17:05:09;27.25;;;25.52;;
40088;SDS011;25793;55.706;13.186;2022-09-17T17:07:36;39.63;;;37.38;;
40088;SDS011;25793;55.706;13.186;2022-09-17T17:10:06;33.53;;;31.42;;
40088;SDS011;25793;55.706;13.186;2022-09-17T17:12:34;24.65;;;23.13;;
40088;SDS011;25793;55.706;13.186;2022-09-17T17:15:02;30.60;;;28.90;;
40088;SDS011;25793;55.706;13.186;2022-09-17T17:17:34;19.80;;;18.60;;
40088;SDS011;25793;55.706;13.186;2022-09-17T17:20:02;31.65;;;29.88;;
40088;SDS011;25793;55.706;13.186;2022-09-17T17:22:44;23.27;;;21.87;;
40088;SDS011;25793;55.706;13.186;2022-09-17T17:25:12;28.27;;;26.67;;
40088;SDS011;25793;55.706;13.186;2022-09-17T17:27:40;24.50;;;23.02;;
40088;SDS011;25793;55.706;13.186;2022-09-17T17:30:07;22.20;;;20.77;;
40088;SDS011;25793;55.706;13.186;2022-09-17T17:32:35;19.50;;;18.38;;
40088;SDS011;25793;55.706;13.186;2022-09-17T17:35:02;22.25;;;20.88;;
40088;SDS011;25793;55.706;13.186;2022-09-17T17:37:29;23.17;;;21.77;;
40088;SDS011;25793;55.706;13.186;2022-09-17T17:39:56;18.05;;;16.75;;
40088;SDS011;25793;55.706;13.186;2022-09-17T17:42:27;26.95;;;25.35;;
40088;SDS011;25793;55.706;13.186;2022-09-17T17:45:00;25.77;;;24.27;;
40088;SDS011;25793;55.706;13.186;2022-09-17T17:47:27;26.23;;;24.73;;
40088;SDS011;25793;55.706;13.186;2022-09-17T17:49:54;25.42;;;24.00;;
40088;SDS011;25793;55.706;13.186;2022-09-17T17:52:20;19.92;;;18.70;;
40088;SDS011;25793;55.706;13.186;2022-09-17T17:54:47;32.42;;;30.52;;
40088;SDS011;25793;55.706;13.186;2022-09-17T17:57:15;31.08;;;29.33;;
40088;SDS011;25793;55.706;13.186;2022-09-17T17:59:42;26.77;;;25.23;;
40088;SDS011;25793;55.706;13.186;2022-09-17T18:02:09;31.38;;;29.63;;
40088;SDS011;25793;55.706;13.186;2022-09-17T18:04:36;34.28;;;32.42;;
40088;SDS011;25793;55.706;13.186;2022-09-17T18:07:03;27.35;;;25.75;;